Time;durP1;ratioP1;P1;durP2;ratioP2;P2;SDS_P1;SDS_P2;PMS_P1;PMS_P2;Temp;Humidity;BMP_temperature;BMP_pressure;BME280_temperature;BME280_humidity;BME280_pressure;Samples;Min_cycle;Max_cycle;Signal;HPM_P1;HPM_P2
2022/06/09 00:01:11;;;;;;;21.05;6.55;;;;;;;13.05;100.00;100833.13;4994662;28;20025;-82
2022/06/09 00:03:43;;;;;;;18.08;5.57;;;;;;;13.09;100.00;100826.09;5004403;28;20057;-81
2022/06/09 00:06:10;;;;;;;15.50;5.60;;;;;;;13.07;100.00;100831.34;5012118;28;20492;-81
2022/06/09 00:08:40;;;;;;;17.23;6.57;;;;;;;13.07;100.00;100828.75;5012218;28;20037;-81
2022/06/09 00:11:07;;;;;;;16.50;6.30;;;;;;;13.04;100.00;100828.81;5011994;28;20018;-81
2022/06/09 00:13:35;;;;;;;13.25;5.45;;;;;;;13.00;100.00;100829.84;5012159;28;20057;-82
2022/06/09 00:16:01;;;;;;;17.27;6.50;;;;;;;12.98;100.00;100827.28;5012001;28;20120;-82
2022/06/09 00:18:27;;;;;;;13.15;6.03;;;;;;;13.02;100.00;100841.06;5011984;28;20093;-82
2022/06/09 00:20:53;;;;;;;14.13;6.13;;;;;;;13.04;100.00;100837.50;5011831;28;20105;-82
2022/06/09 00:23:19;;;;;;;17.10;6.20;;;;;;;13.04;100.00;100841.84;5011762;28;20164;-82
2022/06/09 00:25:45;;;;;;;16.90;6.30;;;;;;;13.03;100.00;100843.59;5011752;28;20096;-82
2022/06/09 00:28:10;;;;;;;14.50;5.78;;;;;;;13.03;100.00;100846.19;5011762;28;20029;-82
2022/06/09 00:30:35;;;;;;;18.60;6.00;;;;;;;13.02;100.00;100841.91;5011687;28;20033;-82
2022/06/09 00:33:01;;;;;;;13.32;5.88;;;;;;;13.03;100.00;100835.78;4993974;28;20487;-82
2022/06/09 00:35:27;;;;;;;17.35;6.25;;;;;;;13.04;100.00;100839.25;5011447;28;20280;-82
2022/06/09 00:37:52;;;;;;;19.70;5.97;;;;;;;13.02;100.00;100834.09;5011609;28;20026;-82
2022/06/09 00:40:18;;;;;;;15.02;5.75;;;;;;;13.05;100.00;100838.34;5011299;28;20032;-82
2022/06/09 00:42:43;;;;;;;19.20;5.82;;;;;;;13.04;100.00;100834.88;5011570;28;20442;-82
2022/06/09 00:45:35;;;;;;;17.92;6.13;;;;;;;13.07;100.00;100841.75;5011607;28;20053;-82
2022/06/09 00:48:06;;;;;;;15.55;5.43;;;;;;;13.07;100.00;100846.97;5011517;28;20072;-83
2022/06/09 00:50:36;;;;;;;22.30;6.30;;;;;;;13.03;100.00;100845.38;5011373;28;20400;-83
2022/06/09 00:53:07;;;;;;;18.92;5.80;;;;;;;13.05;100.00;100848.75;5011415;28;20398;-83
2022/06/09 00:55:33;;;;;;;13.82;5.88;;;;;;;13.00;100.00;100841.09;5011235;28;20477;-82
2022/06/09 00:58:05;;;;;;;17.52;5.30;;;;;;;13.01;100.00;100847.16;5011326;28;20117;-83
2022/06/09 01:00:39;;;;;;;19.75;6.20;;;;;;;12.97;100.00;100846.41;5010910;28;20029;-82
2022/06/09 01:03:06;;;;;;;22.58;6.03;;;;;;;12.97;100.00;100850.75;5011163;28;20034;-82
2022/06/09 01:05:32;;;;;;;16.67;5.80;;;;;;;12.95;100.00;100847.38;5008505;28;20505;-82
2022/06/09 01:08:03;;;;;;;16.80;6.43;;;;;;;12.88;100.00;100844.13;4991661;28;20062;-82
2022/06/09 01:10:30;;;;;;;16.35;6.28;;;;;;;12.84;100.00;100844.25;4977810;28;20113;-82
2022/06/09 01:12:56;;;;;;;16.40;6.20;;;;;;;12.85;100.00;100853.75;5011003;28;20026;-82
2022/06/09 01:15:26;;;;;;;15.73;6.80;;;;;;;12.81;100.00;100847.84;5010799;28;20385;-83
2022/06/09 01:18:02;;;;;;;17.40;6.70;;;;;;;12.76;100.00;100846.28;5011214;28;20029;-82
2022/06/09 01:20:36;;;;;;;15.35;6.32;;;;;;;12.75;100.00;100852.38;5010999;28;20041;-82
2022/06/09 01:23:10;;;;;;;20.50;6.40;;;;;;;12.73;100.00;100848.97;5010986;28;20052;-83
2022/06/09 01:25:54;;;;;;;;;;;;;;;12.75;100.00;100854.97;4997986;28;20024;-82
2022/06/09 01:28:40;;;;;;;21.63;6.30;;;;;;;12.69;100.00;100853.44;5010695;28;20264;-82
2022/06/09 01:31:19;;;;;;;18.48;6.43;;;;;;;12.64;100.00;100858.75;5010492;28;20021;-82
2022/06/09 01:33:51;;;;;;;22.27;6.50;;;;;;;12.62;100.00;100855.34;5010569;28;20033;-82
2022/06/09 01:36:24;;;;;;;18.35;6.70;;;;;;;12.60;100.00;100857.16;5010436;28;20451;-82
2022/06/09 01:38:53;;;;;;;19.00;6.70;;;;;;;12.54;100.00;100852.16;5010789;28;20022;-83
2022/06/09 01:41:21;;;;;;;21.45;6.13;;;;;;;12.56;100.00;100867.69;5010595;28;20030;-83
2022/06/09 01:43:48;;;;;;;23.95;7.13;;;;;;;12.55;100.00;100859.06;5010576;28;20026;-83
2022/06/09 01:46:32;;;;;;;18.75;6.38;;;;;;;12.53;100.00;100863.47;5010306;28;20227;-83
2022/06/09 01:49:10;;;;;;;24.23;6.97;;;;;;;12.51;100.00;100869.59;5010584;28;20022;-83
2022/06/09 01:51:40;;;;;;;21.08;6.65;;;;;;;12.50;100.00;100873.94;5010466;28;20030;-83
2022/06/09 01:54:12;;;;;;;21.80;7.07;;;;;;;12.50;100.00;100876.53;5010439;28;20022;-83
2022/06/09 01:56:49;;;;;;;20.77;7.13;;;;;;;12.52;100.00;100877.34;5010355;28;20065;-83
2022/06/09 01:59:23;;;;;;;21.00;7.10;;;;;;;12.50;100.00;100873.94;5010239;28;20511;-83
2022/06/09 02:01:58;;;;;;;25.30;7.55;;;;;;;12.49;100.00;100874.00;5010287;28;20030;-83
2022/06/09 02:04:31;;;;;;;24.35;7.45;;;;;;;12.48;100.00;100870.56;4992208;28;20026;-83
2022/06/09 02:06:57;;;;;;;32.03;8.07;;;;;;;12.47;100.00;100875.81;4992553;28;20048;-83
2022/06/09 02:09:28;;;;;;;24.98;8.32;;;;;;;12.49;100.00;100881.78;4992270;28;20025;-83
2022/06/09 02:11:57;;;;;;;26.20;7.57;;;;;;;12.50;100.00;100886.09;5009393;28;20041;-83
2022/06/09 02:14:27;;;;;;;24.63;7.72;;;;;;;12.49;100.00;100892.19;5010257;28;20043;-83
2022/06/09 02:16:54;;;;;;;23.55;8.10;;;;;;;12.49;100.00;100895.63;5010141;28;20026;-83
2022/06/09 02:19:19;;;;;;;25.63;8.13;;;;;;;12.47;100.00;100891.41;5009933;28;20385;-83
2022/06/09 02:21:44;;;;;;;21.08;7.80;;;;;;;12.47;100.00;100897.47;5009852;28;20024;-83
2022/06/09 02:24:10;;;;;;;24.17;8.23;;;;;;;12.44;100.00;100899.28;5009826;28;20033;-83
2022/06/09 02:26:35;;;;;;;32.60;8.52;;;;;;;12.45;100.00;100898.38;5010018;28;20041;-83
2022/06/09 02:29:01;;;;;;;26.75;7.85;;;;;;;12.43;100.00;100892.38;5010028;28;20392;-89
2022/06/09 02:31:27;;;;;;;27.00;8.25;;;;;;;12.45;100.00;100908.78;4992582;28;20029;-88
2022/06/09 02:33:54;;;;;;;27.23;8.55;;;;;;;12.44;100.00;100913.13;5010111;28;20026;-88
2022/06/09 02:36:19;;;;;;;26.70;8.18;;;;;;;12.45;100.00;100911.38;4992122;28;20033;-89
2022/06/09 02:38:45;;;;;;;22.27;8.38;;;;;;;12.45;100.00;100908.78;5009899;28;20034;-88
2022/06/09 02:41:11;;;;;;;28.15;8.07;;;;;;;12.45;100.00;100917.44;5009967;28;20552;-89
2022/06/09 02:43:36;;;;;;;27.67;8.57;;;;;;;12.45;100.00;100921.78;5010265;28;20033;-88
2022/06/09 02:46:03;;;;;;;24.65;8.32;;;;;;;12.48;100.00;100919.13;4992100;28;20125;-88
2022/06/09 02:48:29;;;;;;;30.73;8.90;;;;;;;12.48;100.00;100925.16;5010166;28;20030;-88
2022/06/09 02:50:55;;;;;;;23.17;8.57;;;;;;;12.48;100.00;100930.38;5009776;28;20028;-88
2022/06/09 02:53:22;;;;;;;28.30;9.05;;;;;;;12.50;100.00;100935.50;5009831;28;20121;-89
2022/06/09 02:55:48;;;;;;;32.80;8.38;;;;;;;12.51;100.00;100939.81;5009990;28;20093;-88
2022/06/09 02:58:14;;;;;;;22.63;8.40;;;;;;;12.52;100.00;100933.72;4992222;28;20030;-83
2022/06/09 03:00:39;;;;;;;26.42;8.85;;;;;;;12.55;100.00;100929.28;5009701;28;20026;-83
2022/06/09 03:03:07;;;;;;;20.05;8.15;;;;;;;12.53;100.00;100933.66;5010020;28;20022;-83
2022/06/09 03:05:35;;;;;;;28.45;8.68;;;;;;;12.56;100.00;100935.31;4991628;28;20443;-83
2022/06/09 03:08:02;;;;;;;28.33;9.13;;;;;;;12.55;100.00;100942.28;4991636;28;20045;-83
2022/06/09 03:10:27;;;;;;;29.23;8.88;;;;;;;12.54;100.00;100939.72;5009347;28;20452;-83
2022/06/09 03:12:54;;;;;;;26.20;8.30;;;;;;;12.52;100.00;100937.16;5009480;28;20504;-85
2022/06/09 03:15:22;;;;;;;30.13;8.88;;;;;;;12.55;100.00;100947.50;5009727;28;20097;-84
2022/06/09 03:17:48;;;;;;;29.77;8.75;;;;;;;12.53;100.00;100954.47;5009551;28;20484;-83
2022/06/09 03:20:17;;;;;;;22.45;8.85;;;;;;;12.56;100.00;100956.97;5009432;28;20030;-83
2022/06/09 03:22:43;;;;;;;36.33;9.68;;;;;;;12.56;100.00;100963.91;5010579;28;20022;-83
2022/06/09 03:25:09;;;;;;;25.38;9.10;;;;;;;12.52;100.00;100970.97;5013118;28;20029;-83
2022/06/09 03:27:34;;;;;;;25.55;9.02;;;;;;;12.53;100.00;100967.47;5013098;28;20484;-83
2022/06/09 03:30:01;;;;;;;27.83;8.63;;;;;;;12.56;100.00;100977.75;5013050;28;20077;-89
2022/06/09 03:32:27;;;;;;;26.20;8.90;;;;;;;12.58;100.00;100978.56;4995658;28;20061;-88
2022/06/09 03:34:53;;;;;;;32.20;8.93;;;;;;;12.60;100.00;100983.75;5013000;28;20046;-88
2022/06/09 03:37:18;;;;;;;27.83;8.82;;;;;;;12.59;100.00;100985.50;4995173;28;20050;-89
2022/06/09 03:39:44;;;;;;;33.10;8.75;;;;;;;12.59;100.00;100990.69;5013047;28;20088;-88
2022/06/09 03:42:09;;;;;;;31.15;9.00;;;;;;;12.67;100.00;100993.06;5013478;28;20022;-88
2022/06/09 03:44:34;;;;;;;21.65;8.48;;;;;;;12.62;100.00;101000.97;5012640;28;20025;-88
2022/06/09 03:47:00;;;;;;;32.40;8.80;;;;;;;12.66;100.00;101006.97;5012843;28;20504;-88
2022/06/09 03:49:25;;;;;;;27.35;8.65;;;;;;;12.71;100.00;101006.81;5012739;28;20053;-89
2022/06/09 03:51:50;;;;;;;27.08;8.88;;;;;;;12.72;100.00;101013.72;5012630;28;20060;-89
2022/06/09 03:54:16;;;;;;;31.35;9.60;;;;;;;12.74;100.00;101012.78;5012823;28;20033;-88
2022/06/09 03:56:42;;;;;;;26.40;8.60;;;;;;;12.75;100.00;101000.66;5012825;28;20488;-88
2022/06/09 03:59:10;;;;;;;27.27;8.90;;;;;;;12.76;100.00;101010.16;5012323;28;20481;-88
2022/06/09 04:01:35;;;;;;;29.25;8.50;;;;;;;12.73;100.00;101016.28;5012605;28;20018;-87
2022/06/09 04:04:01;;;;;;;36.05;9.43;;;;;;;12.70;100.00;101018.13;5012870;28;20036;-87
2022/06/09 04:06:26;;;;;;;30.30;8.52;;;;;;;12.69;100.00;101029.44;5012486;28;20025;-87
2022/06/09 04:08:52;;;;;;;27.73;8.90;;;;;;;12.66;100.00;101032.97;5012408;28;20522;-88
2022/06/09 04:11:19;;;;;;;27.25;8.43;;;;;;;12.65;100.00;101026.06;5012607;28;20033;-87
2022/06/09 04:13:45;;;;;;;24.48;8.52;;;;;;;12.58;100.00;101037.53;5012389;28;20026;-88
2022/06/09 04:16:21;;;;;;;25.35;8.98;;;;;;;12.57;100.00;101041.03;5012176;28;20026;-88
2022/06/09 04:18:46;;;;;;;27.25;8.77;;;;;;;12.54;100.00;101047.19;5012081;28;20026;-87
2022/06/09 04:21:12;;;;;;;27.27;9.15;;;;;;;12.50;100.00;101052.50;5012125;28;20041;-88
2022/06/09 04:23:37;;;;;;;30.38;8.77;;;;;;;12.47;100.00;101056.06;5012006;28;20033;-88
2022/06/09 04:26:02;;;;;;;26.55;9.00;;;;;;;12.44;100.00;101050.94;5012198;28;20025;-87
2022/06/09 04:28:28;;;;;;;25.13;8.95;;;;;;;12.40;100.00;101059.72;5012200;28;20022;-83
2022/06/09 04:30:53;;;;;;;23.10;8.73;;;;;;;12.42;100.00;101055.31;5011985;28;20026;-83
2022/06/09 04:33:19;;;;;;;31.67;8.98;;;;;;;12.40;100.00;101053.66;5011677;28;20026;-83
2022/06/09 04:35:44;;;;;;;27.92;8.90;;;;;;;12.41;100.00;101060.56;4993274;28;20108;-83
2022/06/09 04:38:11;;;;;;;27.73;8.60;;;;;;;12.40;100.00;101064.91;5011740;28;20034;-83
2022/06/09 04:40:39;;;;;;;25.13;8.93;;;;;;;12.45;100.00;101059.59;5011773;28;20026;-83
2022/06/09 04:43:08;;;;;;;27.35;9.15;;;;;;;12.47;100.00;101056.06;5011595;28;20453;-83
2022/06/09 04:45:33;;;;;;;28.45;9.63;;;;;;;12.53;100.00;101057.63;5011412;28;20046;-84
2022/06/09 04:47:59;;;;;;;25.23;8.90;;;;;;;12.56;100.00;101063.56;5011464;28;20370;-83
2022/06/09 04:50:25;;;;;;;29.33;9.23;;;;;;;12.58;100.00;101067.00;5011270;28;20480;-83
2022/06/09 04:52:51;;;;;;;26.20;9.18;;;;;;;12.61;100.00;101071.28;5011375;28;20480;-83
2022/06/09 04:55:16;;;;;;;28.70;9.75;;;;;;;12.62;100.00;101068.59;5011302;28;20018;-83
2022/06/09 04:57:42;;;;;;;28.55;9.43;;;;;;;12.63;100.00;101075.50;5011871;28;20026;-83
2022/06/09 05:00:10;;;;;;;25.77;9.50;;;;;;;12.66;100.00;101079.78;5011282;28;20018;-83
2022/06/09 05:02:36;;;;;;;26.60;9.93;;;;;;;12.69;100.00;101087.50;4990301;28;20475;-83
2022/06/09 05:05:01;;;;;;;26.65;9.77;;;;;;;12.68;100.00;101080.59;5009742;28;20033;-83
2022/06/09 05:07:28;;;;;;;24.75;9.30;;;;;;;12.72;100.00;101095.22;5011416;28;20042;-83
2022/06/09 05:09:54;;;;;;;26.83;9.93;;;;;;;12.73;100.00;101101.28;4993436;28;20022;-83
2022/06/09 05:12:20;;;;;;;29.70;9.77;;;;;;;12.71;100.00;101105.66;5011048;28;20030;-83
2022/06/09 05:14:45;;;;;;;29.00;10.27;;;;;;;12.68;100.00;101103.16;5011390;28;20108;-83
2022/06/09 05:17:11;;;;;;;28.30;10.00;;;;;;;12.66;100.00;101113.59;5011035;28;20065;-83
2022/06/09 05:19:36;;;;;;;24.08;9.85;;;;;;;12.72;100.00;101123.81;5011205;28;20488;-83
2022/06/09 05:22:02;;;;;;;33.03;10.75;;;;;;;12.82;100.00;101125.28;5011103;28;20033;-83
2022/06/09 05:24:27;;;;;;;30.00;10.38;;;;;;;12.90;100.00;101125.91;4993284;28;20026;-83
2022/06/09 05:26:52;;;;;;;32.60;10.85;;;;;;;12.96;100.00;101130.09;5010664;28;20443;-83
2022/06/09 05:29:18;;;;;;;30.20;10.55;;;;;;;13.02;100.00;101130.78;5010411;28;20480;-84
2022/06/09 05:31:43;;;;;;;26.40;10.98;;;;;;;13.13;100.00;101134.81;5010595;28;20400;-83
2022/06/09 05:34:09;;;;;;;32.40;10.98;;;;;;;13.21;100.00;101131.09;5010258;28;20028;-84
2022/06/09 05:36:35;;;;;;;27.90;11.20;;;;;;;13.30;100.00;101136.03;5010430;28;20400;-83
2022/06/09 05:47:12;;;;;;;26.20;10.45;;;;;;;13.95;100.00;101156.56;5010817;28;20555;-84
2022/06/09 05:49:38;;;;;;;27.48;9.73;;;;;;;14.00;100.00;101148.56;5010410;28;20037;-83
2022/06/09 05:52:03;;;;;;;21.23;10.15;;;;;;;14.10;100.00;101165.63;5010471;28;20220;-83
2022/06/09 05:54:29;;;;;;;30.52;10.15;;;;;;;14.11;100.00;101165.59;5010174;28;20038;-84
2022/06/09 05:56:54;;;;;;;24.13;8.60;;;;;;;14.17;100.00;101172.34;4992847;28;20022;-83
2022/06/09 05:59:20;;;;;;;23.48;7.75;;;;;;;14.17;100.00;101170.59;5010202;28;20030;-83
2022/06/09 06:01:45;;;;;;;19.23;8.27;;;;;;;14.18;100.00;101185.34;5009952;28;20057;-83
2022/06/09 06:04:11;;;;;;;20.80;8.48;;;;;;;14.21;100.00;101182.63;5009835;28;20496;-84
2022/06/09 06:06:36;;;;;;;24.58;8.40;;;;;;;14.22;100.00;101184.31;5010176;28;20025;-83
2022/06/09 06:09:07;;;;;;;18.48;8.30;;;;;;;14.27;100.00;101181.56;5009851;28;20022;-83
2022/06/09 06:11:38;;;;;;;16.25;7.40;;;;;;;14.34;100.00;101190.88;5010303;28;20033;-83
2022/06/09 06:14:04;;;;;;;18.52;8.10;;;;;;;14.36;100.00;101199.50;5010204;28;20021;-83
2022/06/09 06:16:30;;;;;;;18.88;9.05;;;;;;;14.44;100.00;101201.91;5009997;28;20024;-84
2022/06/09 06:18:56;;;;;;;19.08;8.25;;;;;;;14.45;100.00;101207.06;5010081;28;20026;-84
2022/06/09 06:21:23;;;;;;;23.65;7.93;;;;;;;14.44;100.00;101204.50;5009970;28;20033;-84
2022/06/09 06:23:49;;;;;;;22.17;7.35;;;;;;;14.43;100.00;101214.09;5009855;28;20029;-84
2022/06/09 06:26:15;;;;;;;19.92;7.28;;;;;;;14.41;100.00;101215.88;5010181;28;20180;-84
2022/06/09 06:28:40;;;;;;;14.90;7.13;;;;;;;14.41;100.00;101218.50;5010081;28;20520;-89
2022/06/09 06:31:05;;;;;;;16.80;6.70;;;;;;;14.44;100.00;101222.75;5010102;28;20021;-89
2022/06/09 06:33:31;;;;;;;17.95;6.43;;;;;;;14.45;100.00;101225.31;4992215;28;20346;-90
2022/06/09 06:35:56;;;;;;;17.92;6.90;;;;;;;14.46;100.00;101224.44;4991945;28;20061;-89
2022/06/09 06:38:21;;;;;;;16.85;6.25;;;;;;;14.45;100.00;101235.75;5009587;28;20061;-89
2022/06/09 06:40:47;;;;;;;12.70;6.03;;;;;;;14.45;100.00;101237.50;4992085;28;20022;-89
2022/06/09 06:43:12;;;;;;;17.23;5.38;;;;;;;14.43;100.00;101248.00;5009864;28;20073;-88
2022/06/09 06:45:39;;;;;;;13.63;5.60;;;;;;;14.35;100.00;101255.19;5009545;28;20084;-89
2022/06/09 06:48:05;;;;;;;14.02;5.70;;;;;;;14.32;100.00;101255.28;4992140;28;20373;-89
2022/06/09 06:50:31;;;;;;;12.90;5.35;;;;;;;14.27;100.00;101257.16;5009811;28;20010;-88
2022/06/09 06:52:56;;;;;;;14.23;5.07;;;;;;;14.22;100.00;101261.69;5010368;28;20030;-89
2022/06/09 06:55:22;;;;;;;14.68;5.20;;;;;;;14.21;100.00;101270.41;5009531;28;20030;-88
2022/06/09 06:57:48;;;;;;;13.45;5.20;;;;;;;14.20;100.00;101277.38;5011063;28;20084;-89
2022/06/09 07:00:19;;;;;;;12.45;5.88;;;;;;;14.19;100.00;101280.88;5013387;28;20026;-85
2022/06/09 07:02:46;;;;;;;11.30;5.82;;;;;;;14.22;100.00;101278.19;5013422;28;20032;-84
2022/06/09 07:05:11;;;;;;;15.88;6.47;;;;;;;14.23;100.00;101277.28;5013809;28;20180;-85
2022/06/09 07:07:39;;;;;;;16.15;6.78;;;;;;;14.28;100.00;101279.75;5013381;28;20485;-85
2022/06/09 07:10:05;;;;;;;13.77;6.28;;;;;;;14.34;100.00;101289.13;5013474;28;20113;-85
2022/06/09 07:12:31;;;;;;;14.13;6.28;;;;;;;14.42;100.00;101284.56;5013347;28;20478;-85
2022/06/09 07:14:56;;;;;;;16.15;6.65;;;;;;;14.46;100.00;101294.00;5013181;28;20022;-85
2022/06/09 07:17:23;;;;;;;17.85;7.05;;;;;;;14.50;100.00;101286.00;5013309;28;20100;-85
2022/06/09 07:19:48;;;;;;;17.35;7.43;;;;;;;14.60;100.00;101297.84;5013095;28;20049;-85
2022/06/09 07:22:14;;;;;;;16.02;7.57;;;;;;;14.67;100.00;101303.69;5012959;28;20061;-86
2022/06/09 07:24:39;;;;;;;15.48;7.32;;;;;;;14.75;100.00;101306.06;5013253;28;20037;-86
2022/06/09 07:27:05;;;;;;;16.27;7.57;;;;;;;14.79;100.00;101305.94;5013158;28;20057;-85
2022/06/09 07:29:31;;;;;;;14.65;7.97;;;;;;;14.83;100.00;101299.69;5012994;28;20029;-89
2022/06/09 07:31:57;;;;;;;16.80;7.85;;;;;;;14.96;100.00;101305.34;5013109;28;20105;-89
2022/06/09 07:34:22;;;;;;;14.30;7.63;;;;;;;15.09;100.00;101319.66;5012916;28;20108;-88
2022/06/09 07:36:49;;;;;;;13.05;7.13;;;;;;;15.20;100.00;101316.72;5012798;28;20018;-88
2022/06/09 07:39:14;;;;;;;12.15;6.05;;;;;;;15.31;100.00;101311.94;5012926;28;20029;-89
2022/06/09 07:41:40;;;;;;;10.77;5.45;;;;;;;15.43;100.00;101320.19;5012914;28;20030;-89
2022/06/09 07:44:07;;;;;;;8.35;4.70;;;;;;;15.55;100.00;101321.56;5013190;28;20083;-89
2022/06/09 07:46:33;;;;;;;6.60;3.90;;;;;;;15.68;100.00;101321.94;5013090;28;20500;-89
2022/06/09 07:48:59;;;;;;;7.13;3.90;;;;;;;15.88;100.00;101318.59;5012689;28;20029;-87
2022/06/09 07:51:26;;;;;;;5.68;3.90;;;;;;;16.09;100.00;101318.63;5012376;28;20030;-89
2022/06/09 07:53:52;;;;;;;7.55;3.90;;;;;;;16.31;100.00;101318.59;5012865;28;20026;-88
2022/06/09 07:56:18;;;;;;;6.40;3.42;;;;;;;16.84;100.00;101320.84;5012466;28;20384;-89
2022/06/09 07:58:43;;;;;;;6.47;3.85;;;;;;;17.98;100.00;101318.41;5012822;28;20029;-88
2022/06/09 08:01:10;;;;;;;5.90;3.10;;;;;;;19.57;89.19;101323.56;5012581;28;20033;-89
2022/06/09 08:03:36;;;;;;;5.53;3.22;;;;;;;20.72;81.99;101323.28;5012873;28;20080;-89
2022/06/09 08:06:02;;;;;;;6.07;3.15;;;;;;;21.22;83.82;101323.78;5012608;28;20025;-90
2022/06/09 08:08:27;;;;;;;5.50;2.70;;;;;;;21.55;80.17;101325.31;5012274;28;20390;-89
2022/06/09 08:10:53;;;;;;;6.38;2.67;;;;;;;21.81;76.11;101326.34;4994078;28;20615;-89
2022/06/09 08:13:18;;;;;;;5.50;3.13;;;;;;;21.42;75.88;101335.78;5012596;28;20021;-89
2022/06/09 08:15:45;;;;;;;4.55;2.63;;;;;;;20.92;71.68;101337.94;5012390;28;20030;-89
2022/06/09 08:18:10;;;;;;;5.07;2.60;;;;;;;20.40;73.00;101344.41;5012493;28;20115;-89
2022/06/09 08:20:40;;;;;;;3.72;2.40;;;;;;;20.10;76.06;101351.34;5012257;28;20109;-89
2022/06/09 08:23:08;;;;;;;5.10;2.20;;;;;;;19.97;76.58;101356.44;5012477;28;20028;-90
2022/06/09 08:25:36;;;;;;;4.95;1.90;;;;;;;19.82;78.53;101359.06;5012647;28;20033;-88
2022/06/09 08:28:03;;;;;;;3.40;1.50;;;;;;;19.71;74.44;101364.91;5012121;28;20097;-88
2022/06/09 08:30:29;;;;;;;2.80;1.40;;;;;;;19.65;79.03;101363.44;5012061;28;20100;-88
2022/06/09 08:32:57;;;;;;;3.03;1.27;;;;;;;19.75;73.94;101365.56;5011859;28;20033;-88
2022/06/09 08:35:22;;;;;;;1.65;1.30;;;;;;;19.72;74.38;101377.09;5001236;28;20034;-87
2022/06/09 08:37:50;;;;;;;2.30;1.48;;;;;;;19.75;74.88;101379.59;4992584;28;20026;-88
2022/06/09 08:40:19;;;;;;;2.33;1.48;;;;;;;19.55;73.84;101385.03;4992043;28;20034;-88
2022/06/09 08:43:13;;;;;;;1.98;1.42;;;;;;;19.66;75.28;101391.44;4992320;28;20031;-88
2022/06/09 08:45:41;;;;;;;2.45;1.45;;;;;;;19.41;74.72;101398.03;4991903;28;20042;-88
2022/06/09 08:48:17;;;;;;;1.98;1.60;;;;;;;19.24;79.27;101394.47;4998943;28;20112;-88
2022/06/09 08:50:49;;;;;;;2.75;1.60;;;;;;;19.09;76.31;101405.78;5012336;28;20018;-88
2022/06/09 08:53:37;;;;;;;2.45;1.58;;;;;;;18.97;77.09;101409.00;5011353;28;20060;-88
2022/06/09 08:56:26;;;;;;;4.15;1.38;;;;;;;18.65;79.07;101420.22;5011241;28;20077;-88
2022/06/09 08:58:59;;;;;;;3.58;1.63;;;;;;;18.37;76.33;101429.38;5011595;28;20026;-88
2022/06/09 09:01:42;;;;;;;4.50;1.65;;;;;;;18.15;78.12;101437.38;5011444;28;20400;-87
2022/06/09 09:04:22;;;;;;;3.13;1.58;;;;;;;18.07;79.28;101430.81;5011100;28;20099;-89
2022/06/09 09:06:53;;;;;;;4.53;2.45;;;;;;;17.98;78.62;101436.44;5011380;28;20152;-88
2022/06/09 09:09:22;;;;;;;7.15;3.22;;;;;;;17.93;79.46;101439.28;5011037;28;20029;-86
2022/06/09 09:11:53;;;;;;;4.22;3.05;;;;;;;17.92;77.52;101441.97;5011318;28;20407;-89
2022/06/09 09:14:27;;;;;;;4.38;3.05;;;;;;;17.84;79.46;101442.31;5011115;28;20052;-87
2022/06/09 09:16:58;;;;;;;5.18;2.88;;;;;;;17.76;79.78;101447.03;5011014;28;20046;-91
2022/06/09 09:19:54;;;;;;;6.85;3.35;;;;;;;17.64;81.81;101450.19;5010678;28;20484;-88
2022/06/09 09:22:44;;;;;;;6.70;3.60;;;;;;;17.43;79.55;101453.69;5005714;28;20057;-88
2022/06/09 09:25:15;;;;;;;4.97;3.45;;;;;;;17.23;81.59;101457.16;5010811;28;20025;-88
2022/06/09 09:27:53;;;;;;;5.60;3.40;;;;;;;17.11;80.62;101466.38;4993417;28;20033;-88
2022/06/09 09:30:30;;;;;;;8.55;3.90;;;;;;;16.98;80.47;101458.19;4993340;28;20077;-88
2022/06/09 09:32:56;;;;;;;5.75;3.85;;;;;;;16.87;82.13;101464.72;4997962;28;20021;-88
2022/06/09 09:35:40;;;;;;;7.53;3.90;;;;;;;16.84;83.58;101465.72;5005888;28;20041;-88
2022/06/09 09:38:07;;;;;;;5.35;3.85;;;;;;;16.84;81.64;101475.34;5011071;28;20030;-88
2022/06/09 09:40:36;;;;;;;8.82;4.00;;;;;;;16.91;81.99;101471.56;5011094;28;20041;-88
2022/06/09 09:43:10;;;;;;;6.47;3.97;;;;;;;16.97;84.24;101479.19;4993293;28;20034;-87
2022/06/09 09:45:37;;;;;;;6.68;3.63;;;;;;;17.00;84.42;101476.41;5010365;28;20077;-88
2022/06/09 09:48:07;;;;;;;7.43;3.70;;;;;;;17.12;83.42;101481.19;5010650;28;20028;-88
2022/06/09 09:50:48;;;;;;;7.35;3.55;;;;;;;17.19;81.67;101485.25;5006054;28;20022;-88
2022/06/09 09:53:19;;;;;;;7.82;3.92;;;;;;;17.35;84.80;101485.47;5002818;28;20021;-88
2022/06/09 09:55:53;;;;;;;5.43;3.35;;;;;;;17.40;79.41;101482.69;5016465;28;20025;-88
2022/06/09 09:58:26;;;;;;;6.38;2.75;;;;;;;17.48;78.14;101485.81;4985852;28;20022;-88
2022/06/09 10:00:58;;;;;;;5.93;3.10;;;;;;;17.59;83.01;101492.31;4990968;28;20481;-88
2022/06/09 10:08:35;;;;;;;7.45;3.63;;;;;;;17.91;81.51;101490.97;5010559;28;20039;-88
2022/06/09 10:09:55;;;;;;;6.65;3.60;;;;;;;18.09;83.75;101492.75;5010091;28;20424;-87
2022/06/09 10:12:23;;;;;;;5.47;3.45;;;;;;;18.21;78.54;101501.88;5009702;28;20052;-88
2022/06/09 10:14:51;;;;;;;6.75;3.60;;;;;;;18.26;77.70;101499.91;5010165;28;20232;-88
2022/06/09 10:17:33;;;;;;;7.93;3.88;;;;;;;18.28;77.24;101500.69;4992199;28;20396;-87
2022/06/09 10:20:14;;;;;;;7.05;3.85;;;;;;;18.38;81.20;101490.59;5010229;28;20034;-88
2022/06/09 10:22:42;;;;;;;6.82;3.85;;;;;;;18.34;77.48;101496.94;5010165;28;20447;-88
2022/06/09 10:25:27;;;;;;;6.43;4.10;;;;;;;18.46;78.21;101499.84;4992260;28;20440;-88
2022/06/09 10:28:00;;;;;;;7.57;4.10;;;;;;;18.80;79.32;101498.28;5010596;28;20030;-88
2022/06/09 10:30:32;;;;;;;8.32;3.97;;;;;;;19.32;79.79;101489.56;5009861;28;20025;-89
2022/06/09 10:33:08;;;;;;;10.25;4.20;;;;;;;19.76;75.46;101498.81;5009315;28;20054;-88
2022/06/09 10:35:33;;;;;;;7.60;4.07;;;;;;;19.99;74.19;101498.50;5016401;28;20033;-88
2022/06/09 10:38:07;;;;;;;9.37;4.30;;;;;;;20.05;75.10;101496.38;5001227;28;20035;-89
2022/06/09 10:40:38;;;;;;;7.45;3.65;;;;;;;20.07;76.22;101504.19;4995193;28;20743;-88
2022/06/09 10:43:20;;;;;;;9.10;4.10;;;;;;;20.18;73.18;101499.22;5008768;28;20128;-90
2022/06/09 10:45:58;;;;;;;6.85;4.05;;;;;;;20.33;72.56;101503.72;5009907;28;20042;-88
2022/06/09 10:57:40;;;;;;;7.95;3.42;;;;;;;20.29;69.71;101511.78;4982813;28;20092;-87
2022/06/09 11:00:14;;;;;;;7.75;3.80;;;;;;;20.37;68.82;101514.91;5009741;28;20022;-88
2022/06/09 11:02:46;;;;;;;7.03;3.78;;;;;;;20.27;69.16;101511.03;4992426;28;20034;-88
2022/06/09 11:05:15;;;;;;;7.47;3.55;;;;;;;20.06;68.28;101508.59;5009599;28;20033;-88
2022/06/09 11:08:01;;;;;;;6.28;3.45;;;;;;;20.08;71.19;101508.53;4992094;28;20029;-87
2022/06/09 11:11:03;;;;;;;6.47;3.70;;;;;;;20.26;66.42;101509.34;5009708;28;20097;-87
2022/06/09 11:13:45;;;;;;;6.68;3.28;;;;;;;20.77;69.23;101516.22;4997150;28;20032;-87
2022/06/09 11:16:18;;;;;;;7.97;3.38;;;;;;;20.89;65.71;101518.16;5009503;28;20503;-88
2022/06/09 11:18:46;;;;;;;7.53;3.30;;;;;;;20.59;65.91;101527.78;5009734;28;20033;-87
2022/06/09 11:21:49;;;;;;;5.78;3.47;;;;;;;20.28;70.41;101525.88;5009740;28;20021;-88
2022/06/09 11:24:37;;;;;;;9.25;3.45;;;;;;;19.82;69.59;101540.59;5009469;28;20021;-88
2022/06/09 11:27:24;;;;;;;9.43;3.40;;;;;;;19.53;72.34;101540.28;4991988;28;20057;-88
2022/06/09 11:30:11;;;;;;;7.15;3.33;;;;;;;19.34;71.76;101542.94;5009315;28;20025;-88
2022/06/09 11:32:43;;;;;;;7.90;3.42;;;;;;;19.08;71.18;101551.25;4991777;28;20034;-88
2022/06/09 11:35:40;;;;;;;8.63;3.25;;;;;;;19.08;70.97;101543.34;4991594;28;20026;-88
2022/06/09 11:38:33;;;;;;;9.50;3.08;;;;;;;19.32;71.87;101549.19;4991786;28;20032;-88
2022/06/09 11:41:31;;;;;;;7.97;3.10;;;;;;;19.42;72.35;101545.19;5009287;28;20507;-88
2022/06/09 11:44:19;;;;;;;8.27;3.28;;;;;;;19.52;70.39;101553.50;4993211;28;20480;-88
2022/06/09 11:46:45;;;;;;;8.57;3.30;;;;;;;19.68;70.57;101546.56;5001873;28;20042;-88